Time,TemperatureF,DewpointF,PressureIn,WindDirection,WindDirectionDegrees,WindSpeedMPH,WindSpeedGustMPH,Humidity,HourlyPrecipIn,Conditions,Clouds,dailyrainin,SoftwareType,DateUTC
2013-09-19 00:01:00,44.6,41.9,29.66,West,270,0.0,0.0,90,0.00,,,0.00,WUHU216HW,2013-09-19 07:01:00,
2013-09-19 00:06:00,44.4,41.7,29.66,West,270,0.0,0.0,90,0.00,,,0.00,WUHU216HW,2013-09-19 07:06:00,
2013-09-19 00:11:00,44.4,41.7,29.66,West,270,0.0,0.0,90,0.00,,,0.00,WUHU216HW,2013-09-19 07:11:00,
2013-09-19 00:16:00,44.4,41.7,29.66,West,270,0.0,0.0,90,0.00,,,0.00,WUHU216HW,2013-09-19 07:16:00,
2013-09-19 00:21:00,44.2,41.5,29.66,West,270,0.0,0.0,90,0.00,,,0.00,WUHU216HW,2013-09-19 07:21:00,
2013-09-19 00:26:00,44.2,41.5,29.66,West,270,0.0,0.0,90,0.00,,,0.00,WUHU216HW,2013-09-19 07:26:00,
2013-09-19 00:31:00,44.2,41.5,29.65,West,270,0.0,0.0,90,0.00,,,0.00,WUHU216HW,2013-09-19 07:31:00,
2013-09-19 00:36:00,44.0,41.3,29.65,West,270,0.0,0.0,90,0.00,,,0.00,WUHU216HW,2013-09-19 07:36:00,
2013-09-19 00:41:00,44.0,41.3,29.65,West,270,0.0,0.0,90,0.00,,,0.00,WUHU216HW,2013-09-19 07:41:00,
2013-09-19 00:46:00,43.8,41.1,29.65,West,270,0.0,0.0,90,0.00,,,0.00,WUHU216HW,2013-09-19 07:46:00,
2013-09-19 00:51:00,43.8,41.4,29.65,West,270,0.0,0.0,91,0.00,,,0.00,WUHU216HW,2013-09-19 07:51:00,
2013-09-19 00:56:00,43.7,41.2,29.65,West,270,0.0,0.0,91,0.00,,,0.00,WUHU216HW,2013-09-19 07:56:00,
2013-09-19 01:01:00,43.5,41.0,29.65,West,270,0.0,0.0,91,0.00,,,0.00,WUHU216HW,2013-09-19 08:01:00,
2013-09-19 01:06:00,43.5,41.0,29.65,West,270,0.0,0.0,91,0.00,,,0.00,WUHU216HW,2013-09-19 08:06:00,
2013-09-19 01:11:00,43.1,40.7,29.65,West,270,0.0,0.0,91,0.00,,,0.00,WUHU216HW,2013-09-19 08:11:00,
2013-09-19 01:16:00,43.1,40.7,29.65,West,270,0.0,0.0,91,0.00,,,0.00,WUHU216HW,2013-09-19 08:16:00,
2013-09-19 01:21:00,42.9,40.5,29.65,West,270,0.0,0.0,91,0.00,,,0.00,WUHU216HW,2013-09-19 08:21:00,
2013-09-19 01:26:00,42.9,40.5,29.65,West,270,0.0,0.0,91,0.00,,,0.00,WUHU216HW,2013-09-19 08:26:00,
2013-09-19 01:31:00,42.9,40.5,29.65,West,270,0.0,0.0,91,0.00,,,0.00,WUHU216HW,2013-09-19 08:31:00,
2013-09-19 01:36:00,42.8,40.3,29.65,West,270,0.0,0.0,91,0.00,,,0.00,WUHU216HW,2013-09-19 08:36:00,
2013-09-19 01:41:00,42.8,40.3,29.65,West,270,0.0,0.0,91,0.00,,,0.00,WUHU216HW,2013-09-19 08:41:00,
2013-09-19 01:46:00,42.8,40.3,29.65,West,270,0.0,0.0,91,0.00,,,0.00,WUHU216HW,2013-09-19 08:46:00,
2013-09-19 01:51:00,42.6,40.1,29.65,West,270,0.0,0.0,91,0.00,,,0.00,WUHU216HW,2013-09-19 08:51:00,
2013-09-19 01:56:00,42.6,40.1,29.65,West,270,0.0,0.0,91,0.00,,,0.00,WUHU216HW,2013-09-19 08:56:00,
2013-09-19 02:01:00,42.6,40.1,29.65,West,270,0.0,0.0,91,0.00,,,0.00,WUHU216HW,2013-09-19 09:01:00,
2013-09-19 02:06:00,42.6,40.1,29.65,West,270,0.0,0.0,91,0.00,,,0.00,WUHU216HW,2013-09-19 09:06:00,
2013-09-19 02:11:00,42.6,40.1,29.65,West,270,0.0,0.0,91,0.00,,,0.00,WUHU216HW,2013-09-19 09:11:00,
2013-09-19 02:16:00,42.4,40.0,29.65,West,270,0.0,0.0,91,0.00,,,0.00,WUHU216HW,2013-09-19 09:16:00,
2013-09-19 02:21:00,42.4,40.0,29.65,West,270,0.0,0.0,91,0.00,,,0.00,WUHU216HW,2013-09-19 09:21:00,
2013-09-19 02:26:00,42.4,40.0,29.65,West,270,0.0,0.0,91,0.00,,,0.00,WUHU216HW,2013-09-19 09:26:00,
2013-09-19 02:31:00,42.2,39.8,29.65,West,270,0.0,0.0,91,0.00,,,0.00,WUHU216HW,2013-09-19 09:31:00,
2013-09-19 02:36:00,42.0,39.6,29.65,West,270,0.0,0.0,91,0.00,,,0.00,WUHU216HW,2013-09-19 09:36:00,
2013-09-19 02:41:00,42.0,39.6,29.65,West,270,0.0,0.0,91,0.00,,,0.00,WUHU216HW,2013-09-19 09:41:00,
2013-09-19 02:46:00,42.0,39.6,29.64,West,270,0.0,0.0,91,0.00,,,0.00,WUHU216HW,2013-09-19 09:46:00,
2013-09-19 02:51:00,41.9,39.4,29.65,West,270,0.0,0.0,91,0.00,,,0.00,WUHU216HW,2013-09-19 09:51:00,
2013-09-19 02:56:00,41.7,39.2,29.64,West,270,0.0,0.0,91,0.00,,,0.00,WUHU216HW,2013-09-19 09:56:00,
2013-09-19 03:01:00,41.7,39.2,29.64,West,270,0.0,0.0,91,0.00,,,0.00,WUHU216HW,2013-09-19 10:01:00,
2013-09-19 03:06:00,41.5,39.1,29.64,West,270,0.0,0.0,91,0.00,,,0.00,WUHU216HW,2013-09-19 10:06:00,
2013-09-19 03:11:00,41.5,39.1,29.64,West,270,0.0,0.0,91,0.00,,,0.00,WUHU216HW,2013-09-19 10:11:00,
2013-09-19 03:16:00,41.5,39.1,29.64,West,270,0.0,0.0,91,0.00,,,0.00,WUHU216HW,2013-09-19 10:16:00,
2013-09-19 03:21:00,41.5,39.1,29.64,West,270,0.0,0.0,91,0.00,,,0.00,WUHU216HW,2013-09-19 10:21:00,
2013-09-19 03:26:00,41.5,39.1,29.63,West,270,0.0,0.0,91,0.00,,,0.00,WUHU216HW,2013-09-19 10:26:00,
2013-09-19 03:31:00,41.5,39.1,29.63,West,270,0.0,0.0,91,0.00,,,0.00,WUHU216HW,2013-09-19 10:31:00,
2013-09-19 03:36:00,41.3,38.9,29.63,West,270,0.0,0.0,91,0.00,,,0.00,WUHU216HW,2013-09-19 10:36:00,
2013-09-19 03:41:00,41.3,38.9,29.63,West,270,0.0,0.0,91,0.00,,,0.00,WUHU216HW,2013-09-19 10:41:00,
2013-09-19 03:46:00,41.3,39.2,29.62,West,270,0.0,0.0,92,0.00,,,0.00,WUHU216HW,2013-09-19 10:46:00,
2013-09-19 03:51:00,41.3,39.2,29.63,West,270,0.0,0.0,92,0.00,,,0.00,WUHU216HW,2013-09-19 10:51:00,
2013-09-19 03:56:00,41.3,39.2,29.62,West,270,0.0,0.0,92,0.00,,,0.00,WUHU216HW,2013-09-19 10:56:00,
2013-09-19 04:01:00,41.3,39.2,29.62,West,270,0.0,0.0,92,0.00,,,0.00,WUHU216HW,2013-09-19 11:01:00,
2013-09-19 04:06:00,41.3,39.2,29.62,West,270,0.0,0.0,92,0.00,,,0.00,WUHU216HW,2013-09-19 11:06:00,
2013-09-19 04:11:00,41.3,39.2,29.62,West,270,0.0,0.0,92,0.00,,,0.00,WUHU216HW,2013-09-19 11:11:00,
2013-09-19 04:16:00,41.3,39.2,29.61,West,270,0.0,0.0,92,0.00,,,0.00,WUHU216HW,2013-09-19 11:16:00,
2013-09-19 04:21:00,41.3,39.2,29.61,West,270,0.0,0.0,92,0.00,,,0.00,WUHU216HW,2013-09-19 11:21:00,
2013-09-19 04:26:00,41.3,39.2,29.61,West,270,0.0,0.0,92,0.00,,,0.00,WUHU216HW,2013-09-19 11:26:00,
2013-09-19 04:31:00,41.3,39.2,29.61,West,270,0.0,0.0,92,0.00,,,0.00,WUHU216HW,2013-09-19 11:31:00,
2013-09-19 04:36:00,41.5,39.3,29.61,West,270,0.0,0.0,92,0.00,,,0.00,WUHU216HW,2013-09-19 11:36:00,
2013-09-19 04:41:00,41.5,39.6,29.61,West,270,0.0,0.0,93,0.00,,,0.00,WUHU216HW,2013-09-19 11:41:00,
2013-09-19 04:46:00,41.5,39.6,29.60,WNW,293,0.0,0.0,93,0.00,,,0.00,WUHU216HW,2013-09-19 11:46:00,
2013-09-19 04:51:00,41.3,39.4,29.60,SSW,203,0.0,0.0,93,0.00,,,0.00,WUHU216HW,2013-09-19 11:51:00,
2013-09-19 04:56:00,41.5,39.6,29.61,SSW,203,0.0,0.0,93,0.00,,,0.00,WUHU216HW,2013-09-19 11:56:00,
2013-09-19 05:01:00,41.5,39.6,29.61,WSW,248,0.0,0.0,93,0.00,,,0.00,WUHU216HW,2013-09-19 12:01:00,
2013-09-19 05:06:00,41.5,39.6,29.60,WSW,248,0.0,0.0,93,0.00,,,0.00,WUHU216HW,2013-09-19 12:06:00,
2013-09-19 05:11:00,41.5,39.6,29.60,WSW,248,0.0,0.0,93,0.00,,,0.00,WUHU216HW,2013-09-19 12:11:00,
2013-09-19 05:16:00,41.3,39.4,29.60,West,270,0.0,0.0,93,0.00,,,0.00,WUHU216HW,2013-09-19 12:16:00,
2013-09-19 05:21:00,41.3,39.4,29.60,West,270,0.0,0.0,93,0.00,,,0.00,WUHU216HW,2013-09-19 12:21:00,
2013-09-19 05:26:00,41.5,39.6,29.59,West,270,0.0,0.0,93,0.00,,,0.00,WUHU216HW,2013-09-19 12:26:00,
2013-09-19 05:31:00,41.5,39.6,29.59,West,270,0.0,0.0,93,0.00,,,0.00,WUHU216HW,2013-09-19 12:31:00,
2013-09-19 05:36:00,41.9,39.8,29.60,WSW,248,0.0,0.0,93,0.00,,,0.00,WUHU216HW,2013-09-19 12:36:00,
2013-09-19 05:41:00,42.0,40.1,29.59,NNW,338,0.0,0.0,93,0.00,,,0.00,WUHU216HW,2013-09-19 12:41:00,
2013-09-19 05:46:00,42.0,40.1,29.60,NNW,338,0.0,0.0,93,0.00,,,0.00,WUHU216HW,2013-09-19 12:46:00,
2013-09-19 05:51:00,42.0,40.1,29.60,West,270,0.0,0.0,93,0.00,,,0.00,WUHU216HW,2013-09-19 12:51:00,
2013-09-19 05:56:00,42.0,40.1,29.60,West,270,0.0,0.0,93,0.00,,,0.00,WUHU216HW,2013-09-19 12:56:00,
2013-09-19 06:01:00,42.2,40.3,29.59,SW,225,0.0,0.0,93,0.00,,,0.00,WUHU216HW,2013-09-19 13:01:00,
2013-09-19 06:06:00,42.4,40.5,29.59,NNW,338,0.0,0.0,93,0.00,,,0.00,WUHU216HW,2013-09-19 13:06:00,
2013-09-19 06:11:00,42.6,40.7,29.60,SW,225,0.0,0.0,93,0.00,,,0.00,WUHU216HW,2013-09-19 13:11:00,
2013-09-19 06:16:00,42.6,40.7,29.60,NNE,23,0.0,0.0,93,0.00,,,0.00,WUHU216HW,2013-09-19 13:16:00,
2013-09-19 06:21:00,42.6,40.7,29.59,NNE,23,0.0,0.0,93,0.00,,,0.00,WUHU216HW,2013-09-19 13:21:00,
2013-09-19 06:26:00,42.9,41.0,29.59,NE,45,0.0,0.0,93,0.00,,,0.00,WUHU216HW,2013-09-19 13:26:00,
2013-09-19 06:31:00,42.9,41.0,29.59,NE,45,0.0,0.0,93,0.00,,,0.00,WUHU216HW,2013-09-19 13:31:00,
2013-09-19 06:36:00,43.1,41.2,29.60,NNE,23,0.0,0.0,93,0.00,,,0.00,WUHU216HW,2013-09-19 13:36:00,
2013-09-19 06:41:00,43.3,41.4,29.59,SSW,203,0.0,0.0,93,0.00,,,0.00,WUHU216HW,2013-09-19 13:41:00,
2013-09-19 06:46:00,43.5,41.6,29.59,WNW,293,0.0,0.0,93,0.00,,,0.00,WUHU216HW,2013-09-19 13:46:00,
2013-09-19 06:51:00,43.3,41.4,29.59,NNW,338,0.0,0.0,93,0.00,,,0.00,WUHU216HW,2013-09-19 13:51:00,
2013-09-19 06:56:00,43.3,41.4,29.59,NNW,338,0.0,0.0,93,0.00,,,0.00,WUHU216HW,2013-09-19 13:56:00,
2013-09-19 07:01:00,43.3,41.4,29.59,ESE,113,0.0,0.0,93,0.00,,,0.00,WUHU216HW,2013-09-19 14:01:00,
2013-09-19 07:06:00,43.3,41.4,29.59,East,90,0.0,0.0,93,0.00,,,0.00,WUHU216HW,2013-09-19 14:06:00,
2013-09-19 07:11:00,43.5,41.6,29.58,NNE,23,0.0,0.0,93,0.00,,,0.00,WUHU216HW,2013-09-19 14:11:00,
2013-09-19 07:16:00,43.5,41.6,29.58,NNE,23,0.0,0.0,93,0.00,,,0.00,WUHU216HW,2013-09-19 14:16:00,
2013-09-19 07:21:00,43.7,41.8,29.58,NNE,23,0.0,0.0,93,0.00,,,0.00,WUHU216HW,2013-09-19 14:21:00,
2013-09-19 07:26:00,43.8,41.9,29.59,NNE,23,0.0,0.0,93,0.00,,,0.00,WUHU216HW,2013-09-19 14:26:00,
2013-09-19 07:31:00,43.8,41.9,29.59,NNE,23,0.0,0.0,93,0.00,,,0.00,WUHU216HW,2013-09-19 14:31:00,
2013-09-19 07:36:00,43.8,41.9,29.58,NNE,23,0.0,0.0,93,0.00,,,0.00,WUHU216HW,2013-09-19 14:36:00,
2013-09-19 07:41:00,43.8,41.9,29.58,NNE,23,0.0,0.0,93,0.00,,,0.00,WUHU216HW,2013-09-19 14:41:00,
2013-09-19 07:46:00,44.0,42.1,29.58,WNW,293,0.0,0.0,93,0.00,,,0.00,WUHU216HW,2013-09-19 14:46:00,
2013-09-19 07:51:00,44.2,42.3,29.58,WNW,293,0.0,0.0,93,0.00,,,0.00,WUHU216HW,2013-09-19 14:51:00,
2013-09-19 07:56:00,44.0,42.1,29.58,WNW,293,0.0,0.0,93,0.00,,,0.00,WUHU216HW,2013-09-19 14:56:00,
2013-09-19 08:01:00,44.0,42.1,29.58,WNW,293,0.0,0.0,93,0.00,,,0.00,WUHU216HW,2013-09-19 15:01:00,
2013-09-19 08:06:00,44.2,42.3,29.57,WNW,293,0.0,0.0,93,0.00,,,0.00,WUHU216HW,2013-09-19 15:06:00,
2013-09-19 08:11:00,44.2,42.3,29.57,SW,225,0.0,0.0,93,0.00,,,0.00,WUHU216HW,2013-09-19 15:11:00,
2013-09-19 08:16:00,44.4,42.5,29.57,SW,225,0.0,0.0,93,0.00,,,0.00,WUHU216HW,2013-09-19 15:16:00,
2013-09-19 08:21:00,44.4,42.5,29.57,WSW,248,0.0,0.0,93,0.00,,,0.00,WUHU216HW,2013-09-19 15:21:00,
2013-09-19 08:26:00,44.6,42.7,29.57,NW,315,0.0,0.0,93,0.00,,,0.00,WUHU216HW,2013-09-19 15:26:00,
2013-09-19 08:31:00,44.9,43.0,29.57,WSW,248,0.0,0.0,93,0.00,,,0.00,WUHU216HW,2013-09-19 15:31:00,
2013-09-19 08:36:00,44.9,43.0,29.57,North,0,0.0,0.0,93,0.00,,,0.00,WUHU216HW,2013-09-19 15:36:00,
2013-09-19 08:41:00,45.3,43.1,29.57,South,180,0.0,0.0,92,0.00,,,0.00,WUHU216HW,2013-09-19 15:41:00,
2013-09-19 08:46:00,45.6,43.7,29.57,SSW,203,0.0,0.0,93,0.00,,,0.00,WUHU216HW,2013-09-19 15:46:00,
2013-09-19 08:51:00,45.8,43.9,29.57,SW,225,0.0,0.0,93,0.00,,,0.00,WUHU216HW,2013-09-19 15:51:00,
2013-09-19 08:56:00,46.0,44.1,29.58,South,180,0.0,0.0,93,0.00,,,0.00,WUHU216HW,2013-09-19 15:56:00,
2013-09-19 09:01:00,46.5,44.6,29.57,South,180,0.0,0.0,93,0.00,,,0.00,WUHU216HW,2013-09-19 16:01:00,
2013-09-19 09:06:00,46.7,44.6,29.57,SSW,203,0.0,0.0,92,0.00,,,0.00,WUHU216HW,2013-09-19 16:06:00,
2013-09-19 09:11:00,47.1,44.9,29.57,SSW,203,0.0,0.0,92,0.00,,,0.00,WUHU216HW,2013-09-19 16:11:00,
2013-09-19 09:16:00,47.4,45.3,29.57,South,180,0.0,0.0,92,0.00,,,0.00,WUHU216HW,2013-09-19 16:16:00,
2013-09-19 09:21:00,47.8,45.4,29.57,SW,225,0.0,0.0,91,0.00,,,0.00,WUHU216HW,2013-09-19 16:21:00,
2013-09-19 09:26:00,48.9,46.4,29.57,SSW,203,0.0,0.0,91,0.00,,,0.00,WUHU216HW,2013-09-19 16:26:00,
2013-09-19 09:31:00,49.1,46.5,29.57,SSW,203,0.0,0.0,91,0.00,,,0.00,WUHU216HW,2013-09-19 16:31:00,
2013-09-19 09:36:00,49.2,46.7,29.57,SSW,203,0.0,0.0,91,0.00,,,0.00,WUHU216HW,2013-09-19 16:36:00,
2013-09-19 09:41:00,49.8,47.2,29.57,NE,45,0.0,0.0,91,0.00,,,0.00,WUHU216HW,2013-09-19 16:41:00,
2013-09-19 09:46:00,50.5,47.6,29.57,South,180,0.0,0.0,90,0.00,,,0.00,WUHU216HW,2013-09-19 16:46:00,
2013-09-19 09:51:00,50.9,48.0,29.57,ESE,113,0.0,0.0,90,0.00,,,0.00,WUHU216HW,2013-09-19 16:51:00,
2013-09-19 09:56:00,51.2,48.3,29.56,NNE,23,0.0,0.0,90,0.00,,,0.00,WUHU216HW,2013-09-19 16:56:00,
2013-09-19 10:01:00,51.8,48.6,29.56,NNE,23,0.0,0.0,89,0.00,,,0.00,WUHU216HW,2013-09-19 17:01:00,
2013-09-19 10:06:00,52.3,48.8,29.56,South,180,0.0,0.0,88,0.00,,,0.00,WUHU216HW,2013-09-19 17:06:00,
2013-09-19 10:11:00,53.6,49.7,29.56,NNE,23,0.0,0.0,87,0.00,,,0.00,WUHU216HW,2013-09-19 17:11:00,
2013-09-19 10:16:00,54.5,50.6,29.56,NNE,23,0.0,0.0,87,0.00,,,0.00,WUHU216HW,2013-09-19 17:16:00,
2013-09-19 10:21:00,55.5,51.4,29.56,NNE,23,0.0,0.0,86,0.00,,,0.00,WUHU216HW,2013-09-19 17:21:00,
2013-09-19 10:26:00,57.2,52.3,29.56,NNE,23,0.0,0.0,85,0.00,,,0.00,WUHU216HW,2013-09-19 17:26:00,
2013-09-19 10:31:00,58.6,53.1,29.55,NE,45,0.0,0.0,82,0.00,,,0.00,WUHU216HW,2013-09-19 17:31:00,
2013-09-19 10:36:00,59.7,54.2,29.56,NE,45,0.0,0.0,82,0.00,,,0.00,WUHU216HW,2013-09-19 17:36:00,
2013-09-19 10:42:00,61.5,54.9,29.55,North,0,0.0,0.0,79,0.00,,,0.00,WUHU216HW,2013-09-19 17:42:00,
2013-09-19 10:47:00,62.4,55.0,29.55,NE,45,0.0,0.0,77,0.00,,,0.00,WUHU216HW,2013-09-19 17:47:00,
2013-09-19 10:52:00,62.9,55.2,29.55,North,0,0.0,0.0,76,0.00,,,0.00,WUHU216HW,2013-09-19 17:52:00,
2013-09-19 10:57:00,64.5,55.7,29.55,SE,135,0.0,0.0,73,0.00,,,0.00,WUHU216HW,2013-09-19 17:57:00,
2013-09-19 11:02:00,65.1,55.8,29.55,SSW,203,0.0,0.0,72,0.00,,,0.00,WUHU216HW,2013-09-19 18:02:00,
2013-09-19 11:07:00,66.0,56.3,29.55,SSW,203,0.0,0.0,71,0.00,,,0.00,WUHU216HW,2013-09-19 18:07:00,
2013-09-19 11:12:00,66.9,56.8,29.55,South,180,0.0,0.0,70,0.00,,,0.00,WUHU216HW,2013-09-19 18:12:00,
2013-09-19 11:17:00,67.2,56.3,29.54,NE,45,0.0,0.0,68,0.00,,,0.00,WUHU216HW,2013-09-19 18:17:00,
2013-09-19 11:22:00,67.8,56.0,29.54,SSW,203,0.0,0.0,66,0.00,,,0.00,WUHU216HW,2013-09-19 18:22:00,
2013-09-19 11:27:00,68.7,56.8,29.55,NE,45,0.0,0.0,66,0.00,,,0.00,WUHU216HW,2013-09-19 18:27:00,
2013-09-19 11:32:00,69.2,56.9,29.54,SSW,203,0.0,0.0,65,0.00,,,0.00,WUHU216HW,2013-09-19 18:32:00,
2013-09-19 11:37:00,69.4,56.6,29.54,SE,135,0.0,0.0,64,0.00,,,0.00,WUHU216HW,2013-09-19 18:37:00,
2013-09-19 11:42:00,70.1,56.5,29.54,South,180,0.0,0.0,62,0.00,,,0.00,WUHU216HW,2013-09-19 18:42:00,
2013-09-19 11:47:00,70.1,54.7,29.53,ENE,68,0.0,0.0,58,0.00,,,0.00,WUHU216HW,2013-09-19 18:47:00,
2013-09-19 11:52:00,70.1,55.7,29.54,SE,135,0.0,0.0,60,0.00,,,0.00,WUHU216HW,2013-09-19 18:52:00,
2013-09-19 11:57:00,70.7,56.6,29.53,East,90,0.0,0.0,61,0.00,,,0.00,WUHU216HW,2013-09-19 18:57:00,
2013-09-19 12:02:00,70.8,56.3,29.54,SE,135,0.0,0.0,60,0.00,,,0.00,WUHU216HW,2013-09-19 19:02:00,
2013-09-19 12:07:00,71.4,55.8,29.54,SE,135,0.0,0.0,58,0.00,,,0.00,WUHU216HW,2013-09-19 19:07:00,
2013-09-19 12:12:00,71.9,55.3,29.53,ESE,113,0.0,0.0,56,0.00,,,0.00,WUHU216HW,2013-09-19 19:12:00,
2013-09-19 12:17:00,71.9,54.8,29.54,South,180,0.0,0.0,55,0.00,,,0.00,WUHU216HW,2013-09-19 19:17:00,
2013-09-19 12:22:00,72.1,54.4,29.53,South,180,0.0,0.0,54,0.00,,,0.00,WUHU216HW,2013-09-19 19:22:00,
2013-09-19 12:27:00,72.1,54.4,29.53,SW,225,0.0,0.0,54,0.00,,,0.00,WUHU216HW,2013-09-19 19:27:00,
2013-09-19 12:32:00,71.7,54.6,29.52,North,0,0.0,0.0,55,0.00,,,0.00,WUHU216HW,2013-09-19 19:32:00,
2013-09-19 12:37:00,71.6,53.9,29.53,NW,315,0.0,0.0,54,0.00,,,0.00,WUHU216HW,2013-09-19 19:37:00,
2013-09-19 12:42:00,71.4,53.3,29.52,North,0,0.0,0.0,53,0.00,,,0.00,WUHU216HW,2013-09-19 19:42:00,
2013-09-19 12:47:00,71.9,52.8,29.52,NNE,23,0.0,0.0,51,0.00,,,0.00,WUHU216HW,2013-09-19 19:47:00,
2013-09-19 12:52:00,72.5,53.2,29.52,SSW,203,0.0,0.0,51,0.00,,,0.00,WUHU216HW,2013-09-19 19:52:00,
2013-09-19 12:57:00,72.6,53.9,29.52,South,180,0.0,0.0,52,0.00,,,0.00,WUHU216HW,2013-09-19 19:57:00,
2013-09-19 13:02:00,73.0,54.2,29.51,NNE,23,0.0,0.0,52,0.00,,,0.00,WUHU216HW,2013-09-19 20:02:00,
2013-09-19 13:07:00,73.2,54.4,29.51,SSW,203,0.0,0.0,52,0.00,,,0.00,WUHU216HW,2013-09-19 20:07:00,
2013-09-19 13:12:00,72.3,53.6,29.51,SSW,203,0.0,0.0,52,0.00,,,0.00,WUHU216HW,2013-09-19 20:12:00,
2013-09-19 13:17:00,72.1,53.4,29.51,NNE,23,0.0,0.0,52,0.00,,,0.00,WUHU216HW,2013-09-19 20:17:00,
2013-09-19 13:22:00,71.9,52.3,29.51,North,0,0.0,0.0,50,0.00,,,0.00,WUHU216HW,2013-09-19 20:22:00,
2013-09-19 13:27:00,71.9,52.3,29.50,North,0,0.0,0.0,50,0.00,,,0.00,WUHU216HW,2013-09-19 20:27:00,
2013-09-19 13:32:00,71.9,53.3,29.51,SSW,203,0.0,0.0,52,0.00,,,0.00,WUHU216HW,2013-09-19 20:32:00,
2013-09-19 13:37:00,72.1,52.9,29.51,WSW,248,0.0,0.0,51,0.00,,,0.00,WUHU216HW,2013-09-19 20:37:00,
2013-09-19 13:42:00,71.9,53.3,29.51,SW,225,0.0,0.0,52,0.00,,,0.00,WUHU216HW,2013-09-19 20:42:00,
2013-09-19 13:47:00,71.6,50.7,29.51,WSW,248,0.0,0.0,48,0.00,,,0.00,WUHU216HW,2013-09-19 20:47:00,
2013-09-19 13:52:00,71.7,52.1,29.51,SSW,203,0.0,0.0,50,0.00,,,0.00,WUHU216HW,2013-09-19 20:52:00,
2013-09-19 13:57:00,71.6,51.9,29.51,SSW,203,0.0,0.0,50,0.00,,,0.00,WUHU216HW,2013-09-19 20:57:00,
2013-09-19 14:02:00,71.4,51.8,29.51,South,180,0.0,0.0,50,0.00,,,0.00,WUHU216HW,2013-09-19 21:02:00,
2013-09-19 14:07:00,71.4,50.6,29.51,NNW,338,0.0,0.0,48,0.00,,,0.00,WUHU216HW,2013-09-19 21:07:00,
2013-09-19 14:12:00,71.7,50.9,29.50,NE,45,0.0,0.0,48,0.00,,,0.00,WUHU216HW,2013-09-19 21:12:00,
2013-09-19 14:17:00,71.7,50.9,29.50,SSW,203,0.0,0.0,48,0.00,,,0.00,WUHU216HW,2013-09-19 21:17:00,
2013-09-19 14:22:00,71.4,50.0,29.50,SW,225,0.0,0.0,47,0.00,,,0.00,WUHU216HW,2013-09-19 21:22:00,
2013-09-19 14:27:00,71.4,50.0,29.49,SSW,203,0.0,0.0,47,0.00,,,0.00,WUHU216HW,2013-09-19 21:27:00,
2013-09-19 14:32:00,71.0,49.1,29.50,SSW,203,0.0,0.0,46,0.00,,,0.00,WUHU216HW,2013-09-19 21:32:00,
2013-09-19 14:37:00,70.8,48.9,29.49,North,0,0.0,0.0,46,0.00,,,0.00,WUHU216HW,2013-09-19 21:37:00,
2013-09-19 14:42:00,70.8,50.1,29.49,SSW,203,0.0,0.0,48,0.00,,,0.00,WUHU216HW,2013-09-19 21:42:00,
2013-09-19 14:47:00,70.7,51.1,29.49,SSW,203,0.0,0.0,50,0.00,,,0.00,WUHU216HW,2013-09-19 21:47:00,
2013-09-19 14:52:00,70.5,49.8,29.49,SW,225,0.0,0.0,48,0.00,,,0.00,WUHU216HW,2013-09-19 21:52:00,
2013-09-19 14:57:00,70.3,51.8,29.49,SSW,203,0.0,0.0,52,0.00,,,0.00,WUHU216HW,2013-09-19 21:57:00,
2013-09-19 15:02:00,70.3,49.6,29.48,NE,45,0.0,0.0,48,0.00,,,0.00,WUHU216HW,2013-09-19 22:02:00,
2013-09-19 15:07:00,70.1,48.9,29.49,SSW,203,0.0,0.0,47,0.00,,,0.00,WUHU216HW,2013-09-19 22:07:00,
2013-09-19 15:12:00,70.1,50.0,29.48,SSW,203,0.0,0.0,49,0.00,,,0.00,WUHU216HW,2013-09-19 22:12:00,
2013-09-19 15:17:00,69.6,50.6,29.48,SSW,203,0.0,0.0,51,0.00,,,0.00,WUHU216HW,2013-09-19 22:17:00,
2013-09-19 15:22:00,69.6,50.6,29.48,SSW,203,0.0,0.0,51,0.00,,,0.00,WUHU216HW,2013-09-19 22:22:00,
2013-09-19 15:27:00,69.4,50.0,29.47,WSW,248,0.0,0.0,50,0.00,,,0.00,WUHU216HW,2013-09-19 22:27:00,
2013-09-19 15:32:00,69.4,48.8,29.48,North,0,0.0,0.0,48,0.00,,,0.00,WUHU216HW,2013-09-19 22:32:00,
2013-09-19 15:37:00,69.4,50.0,29.47,SE,135,0.0,0.0,50,0.00,,,0.00,WUHU216HW,2013-09-19 22:37:00,
2013-09-19 15:42:00,69.0,49.7,29.47,SSW,203,0.0,0.0,50,0.00,,,0.00,WUHU216HW,2013-09-19 22:42:00,
2013-09-19 15:47:00,68.9,50.0,29.47,SSW,203,0.0,0.0,51,0.00,,,0.00,WUHU216HW,2013-09-19 22:47:00,
2013-09-19 15:52:00,68.9,51.0,29.47,SSW,203,0.0,0.0,53,0.00,,,0.00,WUHU216HW,2013-09-19 22:52:00,
2013-09-19 15:57:00,68.7,50.3,29.47,SSW,203,0.0,0.0,52,0.00,,,0.00,WUHU216HW,2013-09-19 22:57:00,
2013-09-19 16:02:00,68.7,50.8,29.47,SSW,203,0.0,0.0,53,0.00,,,0.00,WUHU216HW,2013-09-19 23:02:00,
2013-09-19 16:07:00,68.5,51.6,29.46,SSW,203,0.0,0.0,55,0.00,,,0.00,WUHU216HW,2013-09-19 23:07:00,
2013-09-19 16:12:00,68.3,50.0,29.46,South,180,0.0,0.0,52,0.00,,,0.00,WUHU216HW,2013-09-19 23:12:00,
2013-09-19 16:17:00,68.1,49.8,29.47,South,180,0.0,0.0,52,0.00,,,0.00,WUHU216HW,2013-09-19 23:17:00,
2013-09-19 16:22:00,68.1,50.3,29.46,SSE,158,0.0,0.0,53,0.00,,,0.00,WUHU216HW,2013-09-19 23:22:00,
2013-09-19 16:27:00,67.8,50.5,29.46,ENE,68,0.0,0.0,54,0.00,,,0.00,WUHU216HW,2013-09-19 23:27:00,
2013-09-19 16:32:00,67.8,49.5,29.46,West,270,0.0,0.0,52,0.00,,,0.00,WUHU216HW,2013-09-19 23:32:00,
2013-09-19 16:37:00,67.8,49.0,29.46,NNE,23,0.0,0.0,51,0.00,,,0.00,WUHU216HW,2013-09-19 23:37:00,
2013-09-19 16:42:00,67.4,49.7,29.46,NNE,23,0.0,0.0,53,0.00,,,0.00,WUHU216HW,2013-09-19 23:42:00,
2013-09-19 16:47:00,67.2,50.5,29.46,NNE,23,0.0,0.0,55,0.00,,,0.00,WUHU216HW,2013-09-19 23:47:00,
2013-09-19 16:52:00,67.1,50.3,29.46,NNE,23,0.0,0.0,55,0.00,,,0.00,WUHU216HW,2013-09-19 23:52:00,
2013-09-19 16:57:00,66.9,50.1,29.46,NE,45,0.0,0.0,55,0.00,,,0.00,WUHU216HW,2013-09-19 23:57:00,
2013-09-19 17:02:00,66.7,50.0,29.46,South,180,0.0,0.0,55,0.00,,,0.00,WUHU216HW,2013-09-20 00:02:00,
2013-09-19 17:07:00,66.5,49.8,29.46,South,180,0.0,0.0,55,0.00,,,0.00,WUHU216HW,2013-09-20 00:07:00,
2013-09-19 17:12:00,66.2,50.0,29.45,SSW,203,0.0,0.0,56,0.00,,,0.00,WUHU216HW,2013-09-20 00:12:00,
2013-09-19 17:17:00,66.0,50.3,29.45,NE,45,0.0,0.0,57,0.00,,,0.00,WUHU216HW,2013-09-20 00:17:00,
2013-09-19 17:22:00,65.4,51.4,29.46,West,270,0.0,0.0,61,0.00,,,0.00,WUHU216HW,2013-09-20 00:22:00,
2013-09-19 17:27:00,65.4,52.9,29.45,SSW,203,0.0,0.0,64,0.00,,,0.00,WUHU216HW,2013-09-20 00:27:00,
2013-09-19 17:32:00,65.3,52.7,29.45,SSW,203,0.0,0.0,64,0.00,,,0.00,WUHU216HW,2013-09-20 00:32:00,
2013-09-19 17:37:00,65.3,53.1,29.45,SSW,203,0.0,0.0,65,0.00,,,0.00,WUHU216HW,2013-09-20 00:37:00,
2013-09-19 17:42:00,64.9,52.8,29.45,SSW,203,0.0,0.0,65,0.00,,,0.00,WUHU216HW,2013-09-20 00:42:00,
2013-09-19 17:47:00,64.7,52.6,29.44,SSW,203,0.0,0.0,65,0.00,,,0.00,WUHU216HW,2013-09-20 00:47:00,
2013-09-19 17:52:00,64.2,53.0,29.45,SSW,203,0.0,0.0,67,0.00,,,0.00,WUHU216HW,2013-09-20 00:52:00,
2013-09-19 17:57:00,64.0,53.2,29.45,SSW,203,0.0,0.0,68,0.00,,,0.00,WUHU216HW,2013-09-20 00:57:00,
2013-09-19 18:02:00,63.6,53.3,29.45,SSW,203,0.0,0.0,69,0.00,,,0.00,WUHU216HW,2013-09-20 01:02:00,
2013-09-19 18:07:00,63.5,53.1,29.44,SSW,203,0.0,0.0,69,0.00,,,0.00,WUHU216HW,2013-09-20 01:07:00,
2013-09-19 18:12:00,63.1,52.8,29.45,SSW,203,0.0,0.0,69,0.00,,,0.00,WUHU216HW,2013-09-20 01:12:00,
2013-09-19 18:17:00,62.7,52.0,29.45,SSW,203,0.0,0.0,68,0.00,,,0.00,WUHU216HW,2013-09-20 01:17:00,
2013-09-19 18:22:00,62.4,51.7,29.45,SSW,203,0.0,0.0,68,0.00,,,0.00,WUHU216HW,2013-09-20 01:22:00,
2013-09-19 18:27:00,61.8,50.8,29.45,SSW,203,0.0,0.0,67,0.00,,,0.00,WUHU216HW,2013-09-20 01:27:00,
2013-09-19 18:32:00,61.5,51.3,29.44,SSW,203,0.0,0.0,69,0.00,,,0.00,WUHU216HW,2013-09-20 01:32:00,
2013-09-19 18:37:00,61.1,51.7,29.44,SSW,203,0.0,0.0,71,0.00,,,0.00,WUHU216HW,2013-09-20 01:37:00,
2013-09-19 18:42:00,61.1,52.1,29.44,SSW,203,0.0,0.0,72,0.00,,,0.00,WUHU216HW,2013-09-20 01:42:00,
2013-09-19 18:47:00,60.6,51.9,29.44,SSW,203,0.0,0.0,73,0.00,,,0.00,WUHU216HW,2013-09-20 01:47:00,
2013-09-19 18:52:00,60.6,52.3,29.45,SSW,203,0.0,0.0,74,0.00,,,0.00,WUHU216HW,2013-09-20 01:52:00,
2013-09-19 18:57:00,60.4,52.1,29.44,SSW,203,0.0,0.0,74,0.00,,,0.00,WUHU216HW,2013-09-20 01:57:00,
2013-09-19 19:02:00,59.9,52.3,29.44,SSW,203,0.0,0.0,76,0.00,,,0.00,WUHU216HW,2013-09-20 02:02:00,
2013-09-19 19:07:00,59.5,51.9,29.44,SSW,203,0.0,0.0,76,0.00,,,0.00,WUHU216HW,2013-09-20 02:07:00,
2013-09-19 19:12:00,59.1,51.9,29.44,SSW,203,0.0,0.0,77,0.00,,,0.00,WUHU216HW,2013-09-20 02:12:00,
2013-09-19 19:17:00,58.8,51.6,29.44,SSW,203,0.0,0.0,77,0.00,,,0.00,WUHU216HW,2013-09-20 02:17:00,
2013-09-19 19:22:00,58.6,51.4,29.44,SSW,203,0.0,0.0,77,0.00,,,0.00,WUHU216HW,2013-09-20 02:22:00,
2013-09-19 19:27:00,58.2,51.0,29.44,SSW,203,0.0,0.0,77,0.00,,,0.00,WUHU216HW,2013-09-20 02:27:00,
2013-09-19 19:32:00,57.7,50.9,29.44,SSW,203,0.0,0.0,78,0.00,,,0.00,WUHU216HW,2013-09-20 02:32:00,
2013-09-19 19:37:00,57.5,50.7,29.44,SSW,203,0.0,0.0,78,0.00,,,0.00,WUHU216HW,2013-09-20 02:37:00,
2013-09-19 19:42:00,57.3,50.5,29.44,ENE,68,0.2,0.2,78,0.00,,,0.00,WUHU216HW,2013-09-20 02:42:00,
2013-09-19 19:47:00,57.0,50.1,29.44,SSW,203,0.0,0.2,78,0.00,,,0.00,WUHU216HW,2013-09-20 02:47:00,
2013-09-19 19:52:00,56.8,50.0,29.44,SSW,203,0.0,0.0,78,0.00,,,0.00,WUHU216HW,2013-09-20 02:52:00,
2013-09-19 19:57:00,56.8,50.0,29.44,SSW,203,0.0,0.2,78,0.00,,,0.00,WUHU216HW,2013-09-20 02:57:00,
2013-09-19 20:02:00,56.4,49.6,29.44,SSW,203,0.0,0.2,78,0.00,,,0.00,WUHU216HW,2013-09-20 03:02:00,
2013-09-19 20:07:00,56.3,49.4,29.44,SSW,203,0.0,0.0,78,0.00,,,0.00,WUHU216HW,2013-09-20 03:07:00,
2013-09-19 20:12:00,56.1,49.2,29.44,SSW,203,0.0,0.0,78,0.00,,,0.00,WUHU216HW,2013-09-20 03:12:00,
2013-09-19 20:17:00,55.9,49.4,29.45,SSW,203,0.0,0.0,79,0.00,,,0.00,WUHU216HW,2013-09-20 03:17:00,
2013-09-19 20:22:00,55.7,49.6,29.45,SSW,203,0.0,0.0,80,0.00,,,0.00,WUHU216HW,2013-09-20 03:22:00,
2013-09-19 20:28:00,55.5,49.4,29.45,SSW,203,0.0,0.0,80,0.00,,,0.00,WUHU216HW,2013-09-20 03:28:00,
2013-09-19 20:33:00,55.2,49.4,29.45,SSW,203,0.0,0.0,81,0.00,,,0.00,WUHU216HW,2013-09-20 03:33:00,
2013-09-19 20:38:00,55.2,49.4,29.45,SSW,203,0.0,0.0,81,0.00,,,0.00,WUHU216HW,2013-09-20 03:38:00,
2013-09-19 20:43:00,55.2,49.4,29.45,SSW,203,0.0,0.0,81,0.00,,,0.00,WUHU216HW,2013-09-20 03:43:00,
2013-09-19 20:48:00,55.0,49.2,29.45,SSW,203,0.0,0.0,81,0.00,,,0.00,WUHU216HW,2013-09-20 03:48:00,
2013-09-19 20:53:00,54.8,49.1,29.44,SSW,203,0.0,0.0,81,0.00,,,0.00,WUHU216HW,2013-09-20 03:53:00,
2013-09-19 20:58:00,54.8,49.1,29.44,SSW,203,0.0,0.0,81,0.00,,,0.00,WUHU216HW,2013-09-20 03:58:00,
2013-09-19 21:03:00,55.0,48.9,29.44,SSW,203,0.0,0.0,80,0.00,,,0.00,WUHU216HW,2013-09-20 04:03:00,
2013-09-19 21:08:00,55.0,48.5,29.44,SSW,203,0.0,0.0,79,0.00,,,0.00,WUHU216HW,2013-09-20 04:08:00,
2013-09-19 21:13:00,55.0,48.5,29.44,SSW,203,0.0,0.0,79,0.00,,,0.00,WUHU216HW,2013-09-20 04:13:00,
2013-09-19 21:18:00,55.0,48.2,29.44,SSW,203,0.0,0.0,78,0.00,,,0.00,WUHU216HW,2013-09-20 04:18:00,
2013-09-19 21:23:00,55.0,48.2,29.44,SSW,203,0.0,0.0,78,0.00,,,0.00,WUHU216HW,2013-09-20 04:23:00,
2013-09-19 21:28:00,54.8,48.4,29.44,SSW,203,0.0,0.0,79,0.00,,,0.00,WUHU216HW,2013-09-20 04:28:00,
2013-09-19 21:33:00,54.5,48.7,29.44,West,270,0.0,0.0,81,0.00,,,0.00,WUHU216HW,2013-09-20 04:33:00,
2013-09-19 21:38:00,54.3,48.6,29.43,West,270,0.0,0.0,81,0.00,,,0.00,WUHU216HW,2013-09-20 04:38:00,
2013-09-19 21:43:00,54.3,48.6,29.43,NNW,338,0.0,0.0,81,0.00,,,0.00,WUHU216HW,2013-09-20 04:43:00,
2013-09-19 21:48:00,54.1,48.4,29.43,NNW,338,0.0,0.0,81,0.00,,,0.00,WUHU216HW,2013-09-20 04:48:00,
2013-09-19 21:53:00,53.9,48.2,29.43,West,270,0.0,0.0,81,0.00,,,0.00,WUHU216HW,2013-09-20 04:53:00,
2013-09-19 21:58:00,53.7,48.4,29.43,SW,225,0.0,0.0,82,0.00,,,0.00,WUHU216HW,2013-09-20 04:58:00,
2013-09-19 22:03:00,53.4,48.0,29.44,SW,225,0.0,0.0,82,0.00,,,0.00,WUHU216HW,2013-09-20 05:03:00,
2013-09-19 22:08:00,53.2,48.2,29.44,SW,225,0.0,0.0,83,0.00,,,0.00,WUHU216HW,2013-09-20 05:08:00,
2013-09-19 22:13:00,53.2,47.9,29.44,SW,225,0.0,0.0,82,0.00,,,0.00,WUHU216HW,2013-09-20 05:13:00,
2013-09-19 22:18:00,52.8,47.5,29.44,SW,225,0.0,0.0,82,0.00,,,0.00,WUHU216HW,2013-09-20 05:18:00,
2013-09-19 22:23:00,52.7,47.3,29.44,SW,225,0.0,0.0,82,0.00,,,0.00,WUHU216HW,2013-09-20 05:23:00,
2013-09-19 22:28:00,52.5,47.1,29.43,SW,225,0.0,0.0,82,0.00,,,0.00,WUHU216HW,2013-09-20 05:28:00,
2013-09-19 22:33:00,52.3,47.3,29.43,WNW,293,0.0,0.0,83,0.00,,,0.00,WUHU216HW,2013-09-20 05:33:00,
2013-09-19 22:38:00,52.3,47.3,29.43,WNW,293,0.0,0.0,83,0.00,,,0.00,WUHU216HW,2013-09-20 05:38:00,
2013-09-19 22:43:00,52.3,47.3,29.43,West,270,0.0,0.0,83,0.00,,,0.00,WUHU216HW,2013-09-20 05:43:00,
2013-09-19 22:48:00,52.1,47.4,29.43,SW,225,0.0,0.0,84,0.00,,,0.00,WUHU216HW,2013-09-20 05:48:00,
2013-09-19 22:53:00,52.3,47.9,29.43,SW,225,0.0,0.0,85,0.00,,,0.00,WUHU216HW,2013-09-20 05:53:00,
2013-09-19 22:58:00,52.1,47.4,29.43,SW,225,0.0,0.0,84,0.00,,,0.00,WUHU216HW,2013-09-20 05:58:00,
2013-09-19 23:03:00,51.9,47.5,29.43,WSW,248,0.0,0.0,85,0.00,,,0.00,WUHU216HW,2013-09-20 06:03:00,
2013-09-19 23:08:00,51.9,47.5,29.43,WSW,248,0.0,0.0,85,0.00,,,0.00,WUHU216HW,2013-09-20 06:08:00,
2013-09-19 23:13:00,51.9,47.5,29.43,WSW,248,0.0,0.0,85,0.00,,,0.00,WUHU216HW,2013-09-20 06:13:00,
2013-09-19 23:18:00,51.8,47.3,29.43,WSW,248,0.0,0.0,85,0.00,,,0.00,WUHU216HW,2013-09-20 06:18:00,
2013-09-19 23:23:00,51.6,47.2,29.43,WNW,293,0.0,0.0,85,0.00,,,0.00,WUHU216HW,2013-09-20 06:23:00,
2013-09-19 23:28:00,51.6,47.2,29.43,NW,315,0.0,0.0,85,0.00,,,0.00,WUHU216HW,2013-09-20 06:28:00,
2013-09-19 23:33:00,51.4,47.0,29.43,West,270,0.0,0.0,85,0.00,,,0.00,WUHU216HW,2013-09-20 06:33:00,
2013-09-19 23:38:00,51.2,46.8,29.43,North,0,0.0,0.0,85,0.00,,,0.00,WUHU216HW,2013-09-20 06:38:00,
2013-09-19 23:43:00,51.2,46.8,29.42,North,0,0.0,0.0,85,0.00,,,0.00,WUHU216HW,2013-09-20 06:43:00,
2013-09-19 23:48:00,51.0,46.3,29.41,West,270,0.0,0.0,84,0.00,,,0.00,WUHU216HW,2013-09-20 06:48:00,
2013-09-19 23:53:00,50.9,46.1,29.41,West,270,0.0,0.0,84,0.00,,,0.00,WUHU216HW,2013-09-20 06:53:00,
2013-09-19 23:58:00,50.9,46.4,29.42,West,270,0.0,0.0,85,0.00,,,0.00,WUHU216HW,2013-09-20 06:58:00,